Time;durP1;ratioP1;P1;durP2;ratioP2;P2;SDS_P1;SDS_P2;PMS_P1;PMS_P2;Temp;Humidity;BMP_temperature;BMP_pressure;BME280_temperature;BME280_humidity;BME280_pressure;Samples;Min_cycle;Max_cycle;Signal;HPM_P1;HPM_P2
2021/05/18 00:03:47;;;;;;;1.67;0.60;;;;;;;;;;10512076;28;20655;-74
2021/05/18 00:14:10;;;;;;;2.33;0.50;;;;;;;;;;10528849;28;20212;-73
2021/05/18 00:19:13;;;;;;;0.90;0.33;;;;;;;;;;10529262;28;20257;-71
2021/05/18 00:24:16;;;;;;;0.83;0.60;;;;;;;;;;10516265;28;20203;-73
2021/05/18 00:29:18;;;;;;;2.00;0.50;;;;;;;;;;10521682;28;20183;-71
2021/05/18 00:34:20;;;;;;;0.43;0.33;;;;;;;;;;10532627;28;20318;-72
2021/05/18 00:39:23;;;;;;;1.60;0.40;;;;;;;;;;10517169;28;20262;-72
2021/05/18 00:44:25;;;;;;;2.00;0.40;;;;;;;;;;10530249;28;20215;-73
2021/05/18 00:49:27;;;;;;;1.10;0.37;;;;;;;;;;10523712;28;20256;-74
2021/05/18 00:54:37;;;;;;;0.83;0.40;;;;;;;;;;10527731;28;20231;-74
2021/05/18 00:59:39;;;;;;;0.40;0.20;;;;;;;;;;10528137;28;20715;-75
2021/05/18 01:04:43;;;;;;;1.57;0.27;;;;;;;;;;10529599;28;20200;-74
2021/05/18 01:09:46;;;;;;;0.10;0.10;;;;;;;;;;10513102;28;20244;-74
2021/05/18 01:14:49;;;;;;;0.37;0.23;;;;;;;;;;10520456;28;20216;-74
2021/05/18 01:19:51;;;;;;;0.87;0.40;;;;;;;;;;10521406;28;20648;-73
2021/05/18 01:24:54;;;;;;;0.17;0.17;;;;;;;;;;10521326;28;20586;-72
2021/05/18 01:29:56;;;;;;;0.40;0.17;;;;;;;;;;10525369;28;20280;-71
2021/05/18 01:34:58;;;;;;;0.10;0.10;;;;;;;;;;10527068;28;20254;-72
2021/05/18 01:40:11;;;;;;;0.20;0.20;;;;;;;;;;10521946;28;20222;-72
2021/05/18 01:45:15;;;;;;;1.33;0.30;;;;;;;;;;10524942;28;20190;-73
2021/05/18 01:50:18;;;;;;;0.60;0.40;;;;;;;;;;10516752;28;20204;-75
2021/05/18 01:55:26;;;;;;;0.20;0.20;;;;;;;;;;10534674;28;20237;-74
2021/05/18 02:00:29;;;;;;;0.20;0.20;;;;;;;;;;10516216;28;20227;-75
2021/05/18 02:05:33;;;;;;;1.37;0.23;;;;;;;;;;10521997;28;20540;-74
2021/05/18 02:10:36;;;;;;;0.60;0.40;;;;;;;;;;10518582;28;20220;-74
2021/05/18 02:15:47;;;;;;;0.80;0.30;;;;;;;;;;10525891;28;20714;-74
2021/05/18 02:20:51;;;;;;;0.70;0.20;;;;;;;;;;10517858;28;20261;-72
2021/05/18 02:25:54;;;;;;;0.57;0.30;;;;;;;;;;10521187;28;20271;-75
2021/05/18 02:30:56;;;;;;;0.30;0.30;;;;;;;;;;10517312;28;20287;-75
2021/05/18 02:35:59;;;;;;;0.53;0.30;;;;;;;;;;10525722;28;20313;-74
2021/05/18 02:41:02;;;;;;;0.17;0.17;;;;;;;;;;10520134;28;20219;-74
2021/05/18 02:46:14;;;;;;;0.40;0.40;;;;;;;;;;10512469;28;20574;-74
2021/05/18 02:51:17;;;;;;;0.17;0.17;;;;;;;;;;10521036;28;20232;-74
2021/05/18 02:56:26;;;;;;;0.37;0.30;;;;;;;;;;10511022;28;20744;-74
2021/05/18 03:01:28;;;;;;;0.87;0.33;;;;;;;;;;10515000;28;20268;-74
2021/05/18 03:06:30;;;;;;;0.43;0.30;;;;;;;;;;10517798;28;20191;-74
2021/05/18 03:11:33;;;;;;;0.57;0.40;;;;;;;;;;10523385;28;20286;-74
2021/05/18 03:16:36;;;;;;;0.40;0.40;;;;;;;;;;10528153;28;20265;-73
2021/05/18 03:21:39;;;;;;;0.97;0.60;;;;;;;;;;10523504;28;20707;-73
2021/05/18 03:26:45;;;;;;;0.57;0.50;;;;;;;;;;10527953;28;20188;-73
2021/05/18 03:37:12;;;;;;;0.90;0.40;;;;;;;;;;10524948;28;20179;-74
2021/05/18 03:42:18;;;;;;;0.50;0.40;;;;;;;;;;10523030;28;20208;-74
2021/05/18 03:52:46;;;;;;;2.00;0.47;;;;;;;;;;10524512;28;20690;-72
2021/05/18 04:03:15;;;;;;;0.83;0.40;;;;;;;;;;10533725;28;20273;-74
2021/05/18 04:19:20;;;;;;;0.57;0.30;;;;;;;;;;10521927;28;20663;-72
2021/05/18 04:41:06;;;;;;;0.80;0.40;;;;;;;;;;10522389;28;20216;-73
2021/05/18 04:51:33;;;;;;;1.13;0.33;;;;;;;;;;10524179;28;20736;-73
2021/05/18 05:02:08;;;;;;;1.33;0.40;;;;;;;;;;10517320;28;20255;-72
2021/05/18 05:07:12;;;;;;;0.47;0.47;;;;;;;;;;10524595;28;20499;-73
2021/05/18 05:17:34;;;;;;;1.33;0.43;;;;;;;;;;10526877;28;20222;-73
2021/05/18 05:22:36;;;;;;;0.57;0.40;;;;;;;;;;10529742;28;20230;-73
2021/05/18 05:27:38;;;;;;;0.30;0.30;;;;;;;;;;10528338;28;20219;-72
2021/05/18 05:32:42;;;;;;;0.53;0.40;;;;;;;;;;10521724;28;20235;-73
2021/05/18 05:37:44;;;;;;;0.20;0.20;;;;;;;;;;10526610;28;20266;-71
2021/05/18 05:42:46;;;;;;;0.63;0.40;;;;;;;;;;10521927;28;20328;-73
2021/05/18 05:47:49;;;;;;;2.37;0.40;;;;;;;;;;10512461;28;20708;-71
2021/05/18 05:52:51;;;;;;;0.77;0.30;;;;;;;;;;10518820;28;20247;-73
2021/05/18 05:57:54;;;;;;;1.50;0.60;;;;;;;;;;10528280;28;21347;-73
2021/05/18 06:02:57;;;;;;;1.73;0.57;;;;;;;;;;10535169;28;20586;-74
2021/05/18 06:07:59;;;;;;;0.97;0.50;;;;;;;;;;10528404;28;20210;-72
2021/05/18 06:13:14;;;;;;;0.40;0.40;;;;;;;;;;10522788;28;20219;-74
2021/05/18 06:34:40;;;;;;;2.00;0.53;;;;;;;;;;10527972;28;20208;-73
2021/05/18 06:50:43;;;;;;;0.90;0.30;;;;;;;;;;10515171;28;20216;-72
2021/05/18 06:55:48;;;;;;;1.37;0.57;;;;;;;;;;10515109;28;20250;-73
2021/05/18 07:00:50;;;;;;;1.77;0.57;;;;;;;;;;10518264;28;20635;-72
2021/05/18 07:05:57;;;;;;;0.67;0.40;;;;;;;;;;10519488;28;20268;-70
2021/05/18 07:11:00;;;;;;;0.70;0.30;;;;;;;;;;10509755;28;20227;-71
2021/05/18 07:16:02;;;;;;;1.57;0.50;;;;;;;;;;10497201;28;20207;-72
2021/05/18 07:21:05;;;;;;;1.40;0.70;;;;;;;;;;10516332;28;20352;-71
2021/05/18 07:26:07;;;;;;;0.50;0.40;;;;;;;;;;10520433;28;20261;-71
2021/05/18 07:31:11;;;;;;;0.40;0.40;;;;;;;;;;10517053;28;20250;-73
2021/05/18 07:36:14;;;;;;;1.07;0.47;;;;;;;;;;10504329;28;20212;-73
2021/05/18 07:41:16;;;;;;;0.80;0.40;;;;;;;;;;10518442;28;20257;-74
2021/05/18 07:46:20;;;;;;;0.43;0.43;;;;;;;;;;10519073;28;20230;-72
2021/05/18 07:51:35;;;;;;;1.30;0.60;;;;;;;;;;10517287;28;20253;-73
2021/05/18 08:07:19;;;;;;;1.50;0.97;;;;;;;;;;10525861;28;20180;-74
2021/05/18 08:12:21;;;;;;;0.77;0.60;;;;;;;;;;10517756;28;20227;-74
2021/05/18 08:17:26;;;;;;;1.20;0.57;;;;;;;;;;10527499;28;20294;-72
2021/05/18 10:36:43;;;;;;;0.77;0.60;;;;;;;;;;10501003;28;20617;-70
2021/05/18 10:41:45;;;;;;;0.60;0.60;;;;;;;;;;10508850;28;20647;-71
2021/05/18 10:46:50;;;;;;;0.57;0.50;;;;;;;;;;10513480;28;20609;-72
2021/05/18 10:51:53;;;;;;;0.40;0.40;;;;;;;;;;10521057;28;20323;-72
2021/05/18 10:57:03;;;;;;;1.27;0.60;;;;;;;;;;10494017;28;20200;-69
2021/05/18 11:02:07;;;;;;;0.80;0.80;;;;;;;;;;10486038;28;20215;-68
2021/05/18 11:07:10;;;;;;;0.88;0.60;;;;;;;;;;10470850;28;20200;-69
2021/05/18 11:12:13;;;;;;;0.65;0.65;;;;;;;;;;10504113;28;20255;-71
2021/05/18 11:17:26;;;;;;;0.73;0.60;;;;;;;;;;10519863;28;20624;-70
2021/05/18 11:28:07;;;;;;;0.83;0.40;;;;;;;;;;10517447;28;20203;-70
2021/05/18 11:33:10;;;;;;;0.40;0.40;;;;;;;;;;10515755;28;20216;-70
2021/05/18 11:38:14;;;;;;;0.57;0.50;;;;;;;;;;10517559;28;20280;-71
2021/05/18 11:43:19;;;;;;;0.43;0.43;;;;;;;;;;10521522;28;20304;-71
2021/05/18 11:48:22;;;;;;;0.90;0.52;;;;;;;;;;10524446;28;20635;-70
2021/05/18 11:53:28;;;;;;;0.50;0.50;;;;;;;;;;10528057;28;20246;-71
2021/05/18 11:58:30;;;;;;;1.17;0.40;;;;;;;;;;10499660;28;20196;-70
2021/05/18 12:03:35;;;;;;;3.07;0.93;;;;;;;;;;10517484;28;20226;-71
2021/05/18 12:08:38;;;;;;;0.80;0.70;;;;;;;;;;10524536;28;20231;-71
2021/05/18 12:13:44;;;;;;;1.33;0.70;;;;;;;;;;10522288;28;20216;-71
2021/05/18 12:18:52;;;;;;;1.65;0.70;;;;;;;;;;10517537;28;20256;-70
2021/05/18 12:24:08;;;;;;;2.80;0.70;;;;;;;;;;10521541;28;20230;-71
2021/05/18 12:29:10;;;;;;;4.18;1.60;;;;;;;;;;10531497;28;20195;-72
2021/05/18 12:34:26;;;;;;;1.47;0.53;;;;;;;;;;10525153;28;20293;-71
2021/05/18 12:39:31;;;;;;;0.50;0.50;;;;;;;;;;10521564;28;20697;-71
2021/05/18 12:44:34;;;;;;;1.03;0.50;;;;;;;;;;10526759;28;20195;-71
2021/05/18 12:49:38;;;;;;;1.20;0.70;;;;;;;;;;10521462;28;20652;-69
2021/05/18 12:54:41;;;;;;;0.80;0.70;;;;;;;;;;10521473;28;20207;-69
2021/05/18 12:59:57;;;;;;;2.53;0.90;;;;;;;;;;10511375;28;20590;-70
2021/05/18 13:05:05;;;;;;;0.73;0.50;;;;;;;;;;10504647;28;20188;-69
2021/05/18 13:10:09;;;;;;;0.70;0.57;;;;;;;;;;10518414;28;20296;-70
2021/05/18 13:15:12;;;;;;;0.70;0.70;;;;;;;;;;10521936;28;20242;-70
2021/05/18 13:20:15;;;;;;;0.70;0.70;;;;;;;;;;10524213;28;20319;-69
2021/05/18 13:30:38;;;;;;;1.20;0.70;;;;;;;;;;10524671;28;20306;-70
2021/05/18 13:35:41;;;;;;;1.53;0.67;;;;;;;;;;10523479;28;20594;-70
2021/05/18 13:40:43;;;;;;;1.53;0.73;;;;;;;;;;10530370;28;20243;-71
2021/05/18 13:45:46;;;;;;;1.07;0.57;;;;;;;;;;10527519;28;20245;-72
2021/05/18 13:50:49;;;;;;;0.80;0.60;;;;;;;;;;10522463;28;20293;-69
2021/05/18 13:55:51;;;;;;;1.57;0.87;;;;;;;;;;10521724;28;20292;-69
2021/05/18 14:00:53;;;;;;;0.93;0.63;;;;;;;;;;10525342;28;20654;-70
2021/05/18 14:05:56;;;;;;;0.83;0.77;;;;;;;;;;10513815;28;20187;-71
2021/05/18 14:11:00;;;;;;;2.00;0.67;;;;;;;;;;10516567;28;20223;-70
2021/05/18 14:16:02;;;;;;;2.00;0.80;;;;;;;;;;10533001;28;20227;-71
2021/05/18 14:21:06;;;;;;;1.37;0.80;;;;;;;;;;10513702;28;20560;-70
2021/05/18 14:26:08;;;;;;;1.80;0.90;;;;;;;;;;10519727;28;20200;-71
2021/05/18 14:31:12;;;;;;;1.47;0.70;;;;;;;;;;10520908;28;20239;-70
2021/05/18 14:36:15;;;;;;;3.33;0.87;;;;;;;;;;10530624;28;20282;-71
2021/05/18 14:47:00;;;;;;;1.47;0.80;;;;;;;;;;10518194;28;20287;-68
2021/05/18 14:57:24;;;;;;;1.40;0.43;;;;;;;;;;10518736;28;20294;-69
2021/05/18 15:02:27;;;;;;;1.27;0.70;;;;;;;;;;10507456;28;20320;-70
2021/05/18 15:07:30;;;;;;;0.83;0.50;;;;;;;;;;10527604;28;20188;-70
2021/05/18 15:12:33;;;;;;;1.53;0.70;;;;;;;;;;10506224;28;20220;-68
2021/05/18 15:17:36;;;;;;;1.43;0.83;;;;;;;;;;10505309;28;20216;-69
2021/05/18 15:22:39;;;;;;;3.13;1.03;;;;;;;;;;10531466;28;20298;-70
2021/05/18 15:27:42;;;;;;;0.90;0.50;;;;;;;;;;10529367;28;20238;-70
2021/05/18 15:32:44;;;;;;;1.00;0.70;;;;;;;;;;10527393;28;20222;-70
2021/05/18 15:37:48;;;;;;;1.10;0.60;;;;;;;;;;10527498;28;20208;-69
2021/05/18 15:42:50;;;;;;;1.77;0.70;;;;;;;;;;10522906;28;20228;-70
2021/05/18 15:47:53;;;;;;;1.07;0.80;;;;;;;;;;10523473;28;20203;-70
2021/05/18 15:52:56;;;;;;;0.77;0.43;;;;;;;;;;10530474;28;20211;-70
2021/05/18 15:57:58;;;;;;;1.93;1.03;;;;;;;;;;10525645;28;20259;-68
2021/05/18 16:03:00;;;;;;;2.93;1.33;;;;;;;;;;10526223;28;20276;-70
2021/05/18 16:08:08;;;;;;;2.37;0.70;;;;;;;;;;10519038;28;20187;-70
2021/05/18 16:13:23;;;;;;;0.97;0.60;;;;;;;;;;10523962;28;20212;-70
2021/05/18 16:18:25;;;;;;;1.03;0.70;;;;;;;;;;10526438;28;20208;-70
2021/05/18 16:23:29;;;;;;;1.23;0.50;;;;;;;;;;10529391;28;20215;-70
2021/05/18 16:28:32;;;;;;;1.23;0.60;;;;;;;;;;10540495;28;20223;-70
2021/05/18 16:33:34;;;;;;;2.00;0.83;;;;;;;;;;10520619;28;20655;-70
2021/05/18 16:38:38;;;;;;;4.50;1.70;;;;;;;;;;10524545;28;20222;-71
2021/05/18 16:44:03;;;;;;;1.77;0.73;;;;;;;;;;10527233;28;20677;-72
2021/05/18 16:49:06;;;;;;;1.70;0.80;;;;;;;;;;10521378;28;20191;-71
2021/05/18 16:54:11;;;;;;;3.40;1.40;;;;;;;;;;10528123;28;20291;-71
2021/05/18 16:59:13;;;;;;;4.77;2.10;;;;;;;;;;10522911;28;20303;-71
2021/05/18 17:04:16;;;;;;;2.20;0.90;;;;;;;;;;10527071;28;20218;-70
2021/05/18 17:09:19;;;;;;;2.30;0.87;;;;;;;;;;10524471;28;20613;-69
2021/05/18 17:14:22;;;;;;;1.80;0.60;;;;;;;;;;10528046;28;20226;-71
2021/05/18 17:19:24;;;;;;;3.17;0.60;;;;;;;;;;10520586;28;20257;-69
2021/05/18 17:24:27;;;;;;;1.63;0.83;;;;;;;;;;10525301;28;20644;-71
2021/05/18 17:29:31;;;;;;;3.20;1.20;;;;;;;;;;10531601;28;20201;-70
2021/05/18 17:34:33;;;;;;;1.17;0.80;;;;;;;;;;10526973;28;20607;-70
2021/05/18 17:39:37;;;;;;;1.60;0.83;;;;;;;;;;10531710;28;20627;-71
2021/05/18 17:44:39;;;;;;;1.37;0.80;;;;;;;;;;10521334;28;20232;-70
2021/05/18 17:49:42;;;;;;;3.13;1.13;;;;;;;;;;10520025;28;20199;-69
2021/05/18 17:54:45;;;;;;;2.00;1.10;;;;;;;;;;10518969;28;20249;-70
2021/05/18 17:59:47;;;;;;;1.57;0.80;;;;;;;;;;10530623;28;20306;-70
2021/05/18 18:04:49;;;;;;;1.40;0.90;;;;;;;;;;10516590;28;20240;-70
2021/05/18 18:10:01;;;;;;;3.00;1.00;;;;;;;;;;10516574;28;20688;-71
2021/05/18 18:15:04;;;;;;;2.27;0.70;;;;;;;;;;10516406;28;20781;-70
2021/05/18 18:20:07;;;;;;;1.67;0.80;;;;;;;;;;10512545;28;20826;-69
2021/05/18 18:25:12;;;;;;;2.43;1.17;;;;;;;;;;10510265;28;20180;-71
2021/05/18 18:30:15;;;;;;;1.20;0.60;;;;;;;;;;10514858;28;20303;-71
2021/05/18 18:35:18;;;;;;;2.73;0.80;;;;;;;;;;10520728;28;20197;-70
2021/05/18 18:40:22;;;;;;;1.00;0.60;;;;;;;;;;10520476;28;20216;-70
2021/05/18 18:45:27;;;;;;;1.30;0.80;;;;;;;;;;10524139;28;20204;-71
2021/05/18 18:50:33;;;;;;;6.10;1.93;;;;;;;;;;10501816;28;20220;-70
2021/05/18 18:55:36;;;;;;;1.30;0.90;;;;;;;;;;10520564;28;20212;-71
2021/05/18 19:00:39;;;;;;;3.73;1.00;;;;;;;;;;10516398;28;20290;-70
2021/05/18 19:05:52;;;;;;;1.67;0.90;;;;;;;;;;10509771;28;20291;-70
2021/05/18 19:16:15;;;;;;;4.17;2.03;;;;;;;;;;10525328;28;20204;-71
2021/05/18 19:21:18;;;;;;;6.13;1.97;;;;;;;;;;10518042;28;20658;-70
2021/05/18 19:26:21;;;;;;;9.20;3.80;;;;;;;;;;10511817;28;20559;-70
2021/05/18 19:31:23;;;;;;;1.83;1.07;;;;;;;;;;10541347;28;20388;-70
2021/05/18 19:36:42;;;;;;;4.13;1.67;;;;;;;;;;10525861;28;20212;-71
2021/05/18 19:42:03;;;;;;;1.57;0.90;;;;;;;;;;10522573;28;20285;-69
2021/05/18 19:52:25;;;;;;;3.00;1.00;;;;;;;;;;10467897;28;20318;-70
2021/05/18 19:57:31;;;;;;;3.70;1.30;;;;;;;;;;10524140;28;20214;-69
2021/05/18 20:24:05;;;;;;;2.33;1.07;;;;;;;;;;10517844;28;20208;-68
2021/05/18 20:29:07;;;;;;;2.77;1.20;;;;;;;;;;10525794;28;20215;-68
2021/05/18 20:34:15;;;;;;;2.33;1.07;;;;;;;;;;10529526;28;20564;-69
2021/05/18 20:39:18;;;;;;;2.47;1.00;;;;;;;;;;10521257;28;20637;-71
2021/05/18 20:44:21;;;;;;;2.80;1.00;;;;;;;;;;10532267;28;20231;-71
2021/05/18 20:49:23;;;;;;;1.20;1.10;;;;;;;;;;10536999;28;20195;-69
2021/05/18 20:54:26;;;;;;;1.73;0.90;;;;;;;;;;10525631;28;20278;-72
2021/05/18 20:59:29;;;;;;;9.70;4.30;;;;;;;;;;10532055;28;20216;-70
2021/05/18 21:04:31;;;;;;;3.07;1.10;;;;;;;;;;10527372;28;20544;-71
2021/05/18 21:09:41;;;;;;;2.10;1.07;;;;;;;;;;10525715;28;20253;-71
2021/05/18 21:20:04;;;;;;;2.73;1.33;;;;;;;;;;10520054;28;20226;-71
2021/05/18 21:25:22;;;;;;;1.93;1.23;;;;;;;;;;10520952;28;20192;-72
2021/05/18 21:30:25;;;;;;;2.67;1.20;;;;;;;;;;10525893;28;20291;-70
2021/05/18 21:35:29;;;;;;;3.40;1.37;;;;;;;;;;10519464;28;20692;-71
2021/05/18 21:40:35;;;;;;;2.83;1.50;;;;;;;;;;10523597;28;20223;-70
2021/05/18 21:45:39;;;;;;;1.67;1.03;;;;;;;;;;10522897;28;20227;-70
2021/05/18 21:50:42;;;;;;;3.57;1.27;;;;;;;;;;10536483;28;20226;-69
2021/05/18 21:55:44;;;;;;;3.70;1.40;;;;;;;;;;10523470;28;20540;-70
2021/05/18 22:00:49;;;;;;;5.43;2.27;;;;;;;;;;10533742;28;20245;-71
2021/05/18 22:05:52;;;;;;;5.63;1.53;;;;;;;;;;10527820;28;20576;-71
2021/05/18 22:11:04;;;;;;;2.43;1.20;;;;;;;;;;10529980;28;20529;-71
2021/05/18 22:26:50;;;;;;;4.20;1.20;;;;;;;;;;10527965;28;20256;-71
2021/05/18 22:31:54;;;;;;;4.53;1.30;;;;;;;;;;10524532;28;20220;-70
2021/05/18 22:36:56;;;;;;;3.67;1.43;;;;;;;;;;10534489;28;20591;-70
2021/05/18 22:41:59;;;;;;;4.70;1.33;;;;;;;;;;10522647;28;20265;-70
2021/05/18 22:47:03;;;;;;;1.83;1.10;;;;;;;;;;10518158;28;20191;-69
2021/05/18 22:52:06;;;;;;;2.77;1.10;;;;;;;;;;10516742;28;20216;-69
2021/05/18 22:57:08;;;;;;;1.87;1.20;;;;;;;;;;10528384;28;20216;-70
2021/05/18 23:02:11;;;;;;;1.47;0.93;;;;;;;;;;10521990;28;20540;-69
2021/05/18 23:07:16;;;;;;;2.30;1.20;;;;;;;;;;10521771;28;20852;-69
2021/05/18 23:12:19;;;;;;;3.70;1.40;;;;;;;;;;10520474;28;20303;-70
2021/05/18 23:17:24;;;;;;;2.13;1.30;;;;;;;;;;10527326;28;20191;-70
2021/05/18 23:22:27;;;;;;;4.10;1.40;;;;;;;;;;10520650;28;20571;-70
2021/05/18 23:27:29;;;;;;;3.40;1.40;;;;;;;;;;10532493;28;20184;-70
2021/05/18 23:32:33;;;;;;;3.43;1.47;;;;;;;;;;10518936;28;20306;-70
2021/05/18 23:37:36;;;;;;;2.40;1.50;;;;;;;;;;10522890;28;20239;-69
2021/05/18 23:42:38;;;;;;;1.93;1.40;;;;;;;;;;10524314;28;20211;-70
2021/05/18 23:47:42;;;;;;;3.60;1.50;;;;;;;;;;10529736;28;20616;-69
2021/05/18 23:52:44;;;;;;;2.57;1.40;;;;;;;;;;10532716;28;20539;-69
2021/05/18 23:57:47;;;;;;;2.47;1.50;;;;;;;;;;10533180;28;20691;-70
